Time;durP1;ratioP1;P1;durP2;ratioP2;P2;SDS_P1;SDS_P2;PMS_P1;PMS_P2;Temp;Humidity;BMP_temperature;BMP_pressure;BME280_temperature;BME280_humidity;BME280_pressure;Samples;Min_cycle;Max_cycle;Signal;HPM_P1;HPM_P2
2023/07/31 00:00:27;;;;;;;1.75;1.30;;;21.50;77.80;;;;;;5011821;28;20230;-69
2023/07/31 00:02:54;;;;;;;1.80;1.30;;;21.50;77.80;;;;;;5003627;28;20188;-69
2023/07/31 00:05:21;;;;;;;2.38;1.40;;;21.50;77.80;;;;;;4978933;28;20203;-69
2023/07/31 00:07:46;;;;;;;1.52;1.40;;;21.50;77.80;;;;;;4995227;28;20215;-69
2023/07/31 00:10:12;;;;;;;1.42;1.17;;;21.50;77.90;;;;;;4970531;28;20196;-69
2023/07/31 00:12:43;;;;;;;1.33;1.23;;;21.50;77.80;;;;;;4996092;28;20192;-70
2023/07/31 00:15:10;;;;;;;1.33;1.13;;;21.50;77.80;;;;;;4996507;28;20664;-69
2023/07/31 00:17:36;;;;;;;2.13;1.30;;;21.50;77.80;;;;;;5010352;28;20208;-70
2023/07/31 00:20:03;;;;;;;1.50;1.20;;;21.50;77.80;;;;;;4998728;28;20564;-70
2023/07/31 00:22:29;;;;;;;1.90;1.33;;;21.50;77.70;;;;;;5003203;28;20271;-69
2023/07/31 00:24:56;;;;;;;1.02;1.00;;;21.50;77.70;;;;;;4974120;28;20356;-70
2023/07/31 00:27:22;;;;;;;2.13;1.35;;;21.50;77.70;;;;;;5007579;28;20302;-69
2023/07/31 00:29:47;;;;;;;1.02;1.00;;;21.50;77.70;;;;;;4993142;28;20276;-69
2023/07/31 00:32:13;;;;;;;1.70;1.27;;;21.50;78.50;;;;;;5007272;28;20262;-69
2023/07/31 00:34:39;;;;;;;1.20;1.10;;;21.50;77.60;;;;;;5010909;28;20224;-69
2023/07/31 00:37:05;;;;;;;1.55;1.17;;;21.50;77.60;;;;;;4978320;28;20319;-70
2023/07/31 00:39:31;;;;;;;1.13;1.02;;;21.50;77.70;;;;;;4977161;28;20200;-69
2023/07/31 00:41:57;;;;;;;1.65;1.33;;;21.50;77.60;;;;;;4999914;28;20189;-69
2023/07/31 00:44:22;;;;;;;1.40;1.00;;;21.50;77.70;;;;;;4991159;28;20250;-69
2023/07/31 00:46:49;;;;;;;1.48;1.20;;;21.50;77.50;;;;;;4987103;28;20302;-70
2023/07/31 00:49:16;;;;;;;1.27;1.17;;;21.50;77.60;;;;;;5003989;28;20203;-70
2023/07/31 00:51:42;;;;;;;1.45;1.20;;;21.50;77.60;;;;;;4991389;28;20649;-70
2023/07/31 00:54:08;;;;;;;1.05;0.95;;;21.50;77.50;;;;;;4986133;28;20189;-70
2023/07/31 00:56:34;;;;;;;1.25;1.15;;;21.40;77.40;;;;;;4984550;28;20213;-70
2023/07/31 00:59:00;;;;;;;1.25;1.13;;;21.40;77.50;;;;;;4989495;28;20564;-70
2023/07/31 01:01:26;;;;;;;1.40;1.30;;;21.40;77.50;;;;;;4990981;28;20196;-70
2023/07/31 01:03:53;;;;;;;1.50;1.40;;;21.40;77.50;;;;;;4987127;28;20188;-70
2023/07/31 01:06:44;;;;;;;1.30;1.15;;;21.40;77.40;;;;;;4997565;28;20192;-72
2023/07/31 01:09:50;;;;;;;1.13;1.10;;;21.40;77.50;;;;;;4998395;28;20188;-70
2023/07/31 01:12:17;;;;;;;1.60;1.00;;;21.40;77.40;;;;;;4994224;28;20222;-69
2023/07/31 01:15:10;;;;;;;1.38;1.25;;;21.40;77.40;;;;;;4991425;28;20189;-69
2023/07/31 01:17:37;;;;;;;1.10;1.10;;;21.40;77.40;;;;;;4990964;28;20303;-69
2023/07/31 01:20:14;;;;;;;1.40;1.00;;;21.40;77.40;;;;;;4996538;28;20210;-69
2023/07/31 01:23:12;;;;;;;1.40;1.00;;;21.40;77.40;;;;;;4967029;28;20211;-69
2023/07/31 01:25:59;;;;;;;1.40;1.17;;;21.40;77.40;;;;;;5000529;28;20200;-69
2023/07/31 01:28:43;;;;;;;1.42;1.33;;;21.40;77.40;;;;;;4993883;28;20248;-69
2023/07/31 01:31:16;;;;;;;1.20;1.10;;;21.40;77.40;;;;;;4994347;28;20211;-70
2023/07/31 01:33:42;;;;;;;1.30;1.20;;;21.40;77.30;;;;;;4993993;28;20338;-69
2023/07/31 01:36:08;;;;;;;1.70;1.10;;;21.40;77.20;;;;;;4990728;28;20291;-69
2023/07/31 01:38:34;;;;;;;1.23;1.10;;;21.40;77.40;;;;;;4975477;28;20652;-69
2023/07/31 01:41:01;;;;;;;1.42;1.20;;;21.40;77.20;;;;;;4989221;28;20185;-69
2023/07/31 01:43:27;;;;;;;1.58;1.30;;;21.40;77.30;;;;;;4990742;28;20192;-69
2023/07/31 01:45:53;;;;;;;1.25;1.15;;;21.40;77.30;;;;;;4993664;28;20190;-69
2023/07/31 01:48:19;;;;;;;1.17;1.08;;;21.40;77.40;;;;;;4993822;28;20211;-70
2023/07/31 01:50:45;;;;;;;1.27;1.17;;;21.40;77.40;;;;;;5010538;28;20207;-69
2023/07/31 01:53:12;;;;;;;1.65;1.55;;;21.40;77.30;;;;;;4994256;28;20188;-69
2023/07/31 01:55:38;;;;;;;1.25;1.15;;;21.40;77.30;;;;;;5000291;28;20192;-69
2023/07/31 01:58:03;;;;;;;1.05;1.00;;;21.40;77.30;;;;;;4997420;28;20201;-70
2023/07/31 02:00:29;;;;;;;1.10;1.00;;;21.40;77.30;;;;;;4990688;28;20680;-69
2023/07/31 02:02:55;;;;;;;1.40;1.25;;;21.40;77.30;;;;;;4993654;28;20185;-69
2023/07/31 02:05:21;;;;;;;1.13;1.02;;;21.40;77.20;;;;;;4993547;28;20214;-70
2023/07/31 02:07:46;;;;;;;1.40;1.10;;;21.40;77.10;;;;;;4985555;28;20230;-69
2023/07/31 02:10:12;;;;;;;0.90;0.90;;;21.40;77.20;;;;;;4979739;28;20231;-69
2023/07/31 02:12:38;;;;;;;1.88;1.58;;;21.40;77.20;;;;;;4985696;28;20219;-69
2023/07/31 02:15:04;;;;;;;1.20;1.10;;;21.40;77.20;;;;;;4981124;28;20189;-69
2023/07/31 02:17:30;;;;;;;1.20;1.10;;;21.40;77.10;;;;;;4995116;28;20224;-68
2023/07/31 02:19:55;;;;;;;1.23;1.13;;;21.40;77.20;;;;;;4985869;28;20192;-69
2023/07/31 02:22:21;;;;;;;1.30;1.10;;;21.40;77.20;;;;;;4993651;28;20203;-69
2023/07/31 02:24:47;;;;;;;1.60;1.35;;;21.40;77.10;;;;;;5007532;28;20203;-69
2023/07/31 02:27:13;;;;;;;1.23;1.13;;;21.30;77.00;;;;;;4988104;28;20212;-69
2023/07/31 02:29:38;;;;;;;1.30;1.20;;;21.30;77.00;;;;;;5009918;28;20250;-69
2023/07/31 02:32:04;;;;;;;1.23;1.10;;;21.30;76.90;;;;;;4972879;28;20300;-69
2023/07/31 02:34:30;;;;;;;1.23;1.13;;;21.30;77.00;;;;;;4974011;28;20204;-69
2023/07/31 02:36:56;;;;;;;1.30;1.25;;;21.30;77.10;;;;;;4978764;28;20200;-69
2023/07/31 02:39:22;;;;;;;1.02;1.02;;;21.30;77.00;;;;;;5013485;28;20234;-69
2023/07/31 02:41:48;;;;;;;1.10;1.00;;;21.30;77.10;;;;;;4995023;28;20196;-69
2023/07/31 02:44:14;;;;;;;1.42;1.33;;;21.30;77.00;;;;;;4977569;28;20193;-69
2023/07/31 02:46:40;;;;;;;2.60;1.00;;;21.30;77.00;;;;;;4968480;28;20212;-69
2023/07/31 02:49:06;;;;;;;1.33;1.23;;;21.30;76.90;;;;;;5008494;28;20193;-70
2023/07/31 02:51:31;;;;;;;1.42;1.17;;;21.30;77.00;;;;;;5009755;28;20227;-69
2023/07/31 02:53:57;;;;;;;1.52;1.10;;;21.30;77.10;;;;;;4996761;28;20180;-69
2023/07/31 02:56:23;;;;;;;1.10;1.00;;;21.30;77.00;;;;;;4973742;28;20185;-70
2023/07/31 02:58:49;;;;;;;1.38;1.27;;;21.30;77.00;;;;;;4991306;28;20193;-69
2023/07/31 03:01:14;;;;;;;0.85;0.85;;;21.30;76.90;;;;;;4982881;28;20249;-69
2023/07/31 03:03:42;;;;;;;1.20;1.20;;;21.30;76.90;;;;;;4996820;28;20200;-69
2023/07/31 03:06:07;;;;;;;0.90;0.90;;;21.30;76.90;;;;;;5009117;28;20185;-69
2023/07/31 03:08:33;;;;;;;1.15;1.05;;;21.30;76.90;;;;;;4996369;28;20200;-69
2023/07/31 03:10:59;;;;;;;1.45;1.02;;;21.30;76.80;;;;;;4996792;28;20216;-69
2023/07/31 03:13:25;;;;;;;1.00;1.00;;;21.30;76.80;;;;;;4972084;28;20188;-70
2023/07/31 03:15:50;;;;;;;1.00;0.90;;;21.30;76.80;;;;;;4995345;28;20196;-69
2023/07/31 03:18:16;;;;;;;1.20;1.10;;;21.30;76.80;;;;;;4974445;28;20240;-70
2023/07/31 03:20:46;;;;;;;1.25;1.15;;;21.30;76.80;;;;;;4987383;28;20203;-69
2023/07/31 03:23:11;;;;;;;1.13;1.02;;;21.30;76.80;;;;;;4993035;28;20224;-70
2023/07/31 03:25:37;;;;;;;0.90;0.90;;;21.30;76.90;;;;;;4985047;28;20192;-69
2023/07/31 03:28:03;;;;;;;0.95;0.90;;;21.30;76.80;;;;;;4980182;28;20203;-69
2023/07/31 03:30:30;;;;;;;1.00;1.00;;;21.30;76.90;;;;;;5004222;28;20203;-69
2023/07/31 03:32:56;;;;;;;1.00;1.00;;;21.30;76.80;;;;;;4976639;28;20193;-70
2023/07/31 03:35:21;;;;;;;1.00;1.00;;;21.30;76.80;;;;;;5007315;28;20199;-71
2023/07/31 03:37:47;;;;;;;1.10;1.00;;;21.20;76.80;;;;;;4979488;28;20334;-70
2023/07/31 03:40:13;;;;;;;1.08;0.98;;;21.30;76.80;;;;;;4974985;28;20200;-69
2023/07/31 03:42:39;;;;;;;1.40;1.00;;;21.30;76.80;;;;;;4984531;28;20199;-69
2023/07/31 03:45:06;;;;;;;1.02;1.00;;;21.30;76.80;;;;;;4980096;28;20191;-70
2023/07/31 03:47:31;;;;;;;1.10;1.00;;;21.20;76.60;;;;;;4971540;28;20205;-69
2023/07/31 03:49:57;;;;;;;1.17;1.13;;;21.20;76.70;;;;;;4994438;28;20283;-70
2023/07/31 03:52:23;;;;;;;1.30;1.20;;;21.20;76.70;;;;;;5005700;28;20244;-69
2023/07/31 03:54:48;;;;;;;1.25;1.08;;;21.20;76.60;;;;;;4990351;28;20258;-69
2023/07/31 03:57:14;;;;;;;1.25;1.15;;;21.30;76.70;;;;;;4980645;28;20211;-69
2023/07/31 03:59:40;;;;;;;1.40;1.23;;;21.20;76.60;;;;;;4979589;28;20185;-69
2023/07/31 04:02:06;;;;;;;1.30;1.20;;;21.30;76.70;;;;;;5003872;28;20246;-70
2023/07/31 04:04:31;;;;;;;1.10;1.00;;;21.30;76.70;;;;;;4971102;28;20203;-70
2023/07/31 04:06:57;;;;;;;1.35;0.98;;;21.20;76.60;;;;;;4984355;28;20216;-70
2023/07/31 04:09:23;;;;;;;1.25;1.15;;;21.20;76.60;;;;;;4981986;28;20195;-70
2023/07/31 04:11:48;;;;;;;1.17;1.08;;;21.30;76.70;;;;;;5010316;28;20212;-69
2023/07/31 04:14:14;;;;;;;1.30;1.20;;;21.20;76.60;;;;;;4987235;28;20214;-69
2023/07/31 04:16:40;;;;;;;1.20;1.10;;;21.20;76.60;;;;;;4983812;28;20208;-70
2023/07/31 04:19:05;;;;;;;1.23;1.13;;;21.30;76.70;;;;;;4983691;28;20243;-70
2023/07/31 04:21:31;;;;;;;1.20;1.00;;;21.20;76.60;;;;;;5008071;28;20192;-70
2023/07/31 04:23:58;;;;;;;1.77;1.00;;;21.20;76.60;;;;;;4992766;28;20199;-69
2023/07/31 04:26:24;;;;;;;1.40;1.25;;;21.20;76.60;;;;;;4991683;28;20266;-70
2023/07/31 04:28:49;;;;;;;1.30;1.20;;;21.20;76.60;;;;;;4992579;28;20687;-70
2023/07/31 04:31:15;;;;;;;1.63;1.02;;;21.20;76.50;;;;;;5012439;28;20235;-69
2023/07/31 04:33:41;;;;;;;1.00;1.00;;;21.20;76.60;;;;;;4977854;28;20199;-69
2023/07/31 04:36:06;;;;;;;1.30;1.20;;;21.20;76.60;;;;;;4987053;28;20188;-69
2023/07/31 04:38:32;;;;;;;1.40;1.30;;;21.20;76.60;;;;;;4994649;28;20195;-69
2023/07/31 04:40:58;;;;;;;1.02;1.02;;;21.20;76.60;;;;;;4970869;28;20203;-70
2023/07/31 04:43:24;;;;;;;1.30;1.20;;;21.20;76.60;;;;;;4991647;28;20197;-70
2023/07/31 04:45:50;;;;;;;1.40;1.30;;;21.20;76.60;;;;;;4983880;28;20258;-69
2023/07/31 04:48:16;;;;;;;1.40;1.30;;;21.20;76.60;;;;;;4998317;28;20220;-69
2023/07/31 04:50:42;;;;;;;1.48;1.38;;;21.20;76.60;;;;;;4999571;28;20215;-70
2023/07/31 04:53:07;;;;;;;1.50;1.40;;;21.20;76.60;;;;;;4991325;28;20181;-70
2023/07/31 04:55:33;;;;;;;1.13;1.13;;;21.20;76.60;;;;;;4994807;28;20272;-70
2023/07/31 04:57:59;;;;;;;1.52;1.42;;;21.20;76.60;;;;;;4982779;28;20223;-70
2023/07/31 05:00:25;;;;;;;1.50;1.40;;;21.20;76.60;;;;;;4974806;28;20189;-70
2023/07/31 05:02:51;;;;;;;1.67;1.58;;;21.20;76.60;;;;;;4993711;28;20189;-70
2023/07/31 05:05:16;;;;;;;1.90;1.58;;;21.20;76.60;;;;;;4987259;28;20219;-71
2023/07/31 05:07:42;;;;;;;1.60;1.50;;;21.20;76.60;;;;;;4978900;28;20208;-69
2023/07/31 05:10:08;;;;;;;1.50;1.40;;;21.20;76.60;;;;;;5002217;28;20203;-70
2023/07/31 05:12:34;;;;;;;1.35;1.25;;;21.20;76.60;;;;;;4987306;28;20248;-70
2023/07/31 05:15:00;;;;;;;1.63;1.52;;;21.20;76.60;;;;;;4983866;28;20193;-69
2023/07/31 05:17:25;;;;;;;1.50;1.40;;;21.20;76.60;;;;;;5004540;28;20209;-69
2023/07/31 05:19:51;;;;;;;3.38;1.60;;;21.20;76.60;;;;;;4974628;28;20192;-70
2023/07/31 05:22:17;;;;;;;1.50;1.20;;;21.20;76.60;;;;;;5010778;28;20196;-70
2023/07/31 05:24:43;;;;;;;1.40;1.30;;;21.20;76.60;;;;;;4994296;28;20606;-70
2023/07/31 05:27:09;;;;;;;1.50;1.40;;;21.20;76.60;;;;;;4977510;28;20224;-70
2023/07/31 05:29:35;;;;;;;1.65;1.55;;;21.20;76.60;;;;;;5010503;28;20192;-69
2023/07/31 05:32:01;;;;;;;1.60;1.50;;;21.20;76.60;;;;;;4977936;28;20223;-69
2023/07/31 05:34:27;;;;;;;1.30;1.20;;;21.20;76.60;;;;;;4994031;28;20241;-69
2023/07/31 05:36:53;;;;;;;1.80;1.42;;;21.20;76.60;;;;;;4969808;28;20204;-69
2023/07/31 05:39:19;;;;;;;1.35;1.25;;;21.20;76.70;;;;;;4994049;28;20191;-70
2023/07/31 05:41:45;;;;;;;1.40;1.30;;;21.20;76.70;;;;;;4994408;28;20199;-70
2023/07/31 05:44:11;;;;;;;1.13;1.13;;;21.20;76.70;;;;;;4986280;28;20198;-70
2023/07/31 05:46:37;;;;;;;1.40;1.30;;;21.20;76.70;;;;;;4990862;28;20220;-70
2023/07/31 05:49:02;;;;;;;1.52;1.38;;;21.20;76.70;;;;;;5010114;28;20207;-70
2023/07/31 05:51:28;;;;;;;1.40;1.30;;;21.20;76.70;;;;;;4988729;28;20282;-70
2023/07/31 05:53:54;;;;;;;1.58;1.48;;;21.20;76.70;;;;;;4990745;28;20680;-69
2023/07/31 05:56:20;;;;;;;1.65;1.30;;;21.20;77.50;;;;;;4991729;28;20193;-69
2023/07/31 05:58:45;;;;;;;1.60;1.50;;;21.20;76.70;;;;;;4988695;28;20184;-69
2023/07/31 06:01:11;;;;;;;1.55;1.20;;;21.20;76.70;;;;;;4987326;28;20192;-69
2023/07/31 06:03:37;;;;;;;2.00;1.27;;;21.20;76.70;;;;;;4977951;28;20201;-69
2023/07/31 06:06:02;;;;;;;1.40;1.30;;;21.20;76.70;;;;;;5001966;28;20228;-69
2023/07/31 06:08:28;;;;;;;1.80;1.27;;;21.20;76.70;;;;;;4988864;28;20212;-70
2023/07/31 06:10:54;;;;;;;1.40;1.30;;;21.20;76.70;;;;;;4992456;28;20217;-69
2023/07/31 06:13:20;;;;;;;1.50;1.40;;;21.20;76.70;;;;;;4999906;28;20192;-69
2023/07/31 06:15:45;;;;;;;1.33;1.23;;;21.20;76.70;;;;;;5014733;28;20200;-69
2023/07/31 06:18:11;;;;;;;1.25;1.13;;;21.20;76.70;;;;;;4978419;28;20228;-70
2023/07/31 06:20:40;;;;;;;1.40;1.30;;;21.20;76.80;;;;;;5000361;28;20183;-69
2023/07/31 06:23:06;;;;;;;1.13;1.00;;;21.20;76.80;;;;;;4997499;28;20189;-70
2023/07/31 06:25:32;;;;;;;1.50;1.40;;;21.20;76.80;;;;;;4979859;28;20252;-70
2023/07/31 06:27:57;;;;;;;1.33;1.23;;;21.20;76.80;;;;;;4980034;28;20207;-69
2023/07/31 06:30:23;;;;;;;1.30;1.20;;;21.20;76.90;;;;;;5006460;28;20191;-69
2023/07/31 06:32:49;;;;;;;1.58;1.40;;;21.20;76.90;;;;;;4972977;28;20212;-69
2023/07/31 06:35:15;;;;;;;1.50;1.40;;;21.20;76.90;;;;;;5002758;28;20186;-70
2023/07/31 06:37:43;;;;;;;1.42;1.33;;;21.20;76.90;;;;;;5003099;28;20213;-69
2023/07/31 06:40:09;;;;;;;1.58;1.33;;;21.20;77.00;;;;;;4979183;28;20197;-66
2023/07/31 06:42:36;;;;;;;1.30;1.20;;;21.20;76.90;;;;;;4999304;28;20243;-69
2023/07/31 06:45:05;;;;;;;1.65;1.52;;;21.20;76.90;;;;;;4986797;28;20598;-68
2023/07/31 06:47:32;;;;;;;1.52;1.35;;;21.20;76.90;;;;;;4975810;28;20209;-69
2023/07/31 06:49:57;;;;;;;1.40;1.30;;;21.20;76.80;;;;;;4968895;28;20188;-70
2023/07/31 06:52:23;;;;;;;1.42;1.33;;;21.20;76.80;;;;;;4972697;28;20226;-70
2023/07/31 06:55:03;;;;;;;1.40;1.30;;;21.20;76.80;;;;;;4988968;28;20226;-69
2023/07/31 06:57:29;;;;;;;1.40;1.30;;;21.20;76.70;;;;;;4985488;28;20204;-69
2023/07/31 06:59:55;;;;;;;1.33;1.23;;;21.20;76.70;;;;;;5002511;28;20184;-66
2023/07/31 07:02:21;;;;;;;1.40;1.27;;;21.20;76.60;;;;;;5009596;28;20282;-70
2023/07/31 07:04:47;;;;;;;1.35;1.30;;;21.20;76.60;;;;;;5009397;28;20199;-69
2023/07/31 07:07:12;;;;;;;1.27;1.17;;;21.20;76.60;;;;;;4984947;28;20224;-69
2023/07/31 07:09:38;;;;;;;2.15;1.42;;;21.20;76.60;;;;;;4988607;28;20188;-70
2023/07/31 07:12:04;;;;;;;1.50;1.40;;;21.20;76.60;;;;;;4983138;28;20584;-69
2023/07/31 07:14:30;;;;;;;2.05;1.20;;;21.20;76.60;;;;;;4985086;28;20189;-69
2023/07/31 07:16:55;;;;;;;2.10;1.45;;;21.20;76.60;;;;;;5010215;28;20255;-69
2023/07/31 07:19:21;;;;;;;1.25;1.20;;;21.20;76.50;;;;;;5010274;28;20189;-69
2023/07/31 07:21:47;;;;;;;2.22;1.35;;;21.30;76.70;;;;;;4994615;28;20200;-69
2023/07/31 07:24:13;;;;;;;1.52;1.33;;;21.30;76.50;;;;;;4984957;28;20200;-69
2023/07/31 07:26:39;;;;;;;1.27;1.20;;;21.30;76.60;;;;;;4989962;28;20219;-70
2023/07/31 07:29:07;;;;;;;2.33;1.50;;;21.30;76.50;;;;;;4997962;28;20192;-69
2023/07/31 07:31:33;;;;;;;2.03;1.50;;;21.30;76.50;;;;;;4993065;28;20224;-69
2023/07/31 07:33:59;;;;;;;1.58;1.48;;;21.30;76.50;;;;;;4979475;28;20189;-69
2023/07/31 07:36:27;;;;;;;1.20;1.10;;;21.30;76.30;;;;;;5004490;28;20246;-69
2023/07/31 07:38:53;;;;;;;1.38;1.27;;;21.30;76.20;;;;;;4996871;28;20202;-70
2023/07/31 07:41:19;;;;;;;1.75;1.50;;;21.30;76.10;;;;;;5004155;28;20200;-69
2023/07/31 07:43:44;;;;;;;1.33;1.20;;;21.30;76.80;;;;;;4979418;28;20196;-69
2023/07/31 07:46:10;;;;;;;1.33;1.23;;;21.30;76.00;;;;;;4995538;28;20188;-69
2023/07/31 07:48:36;;;;;;;1.40;1.25;;;21.30;75.90;;;;;;4996129;28;20238;-70
2023/07/31 07:51:02;;;;;;;1.35;1.20;;;21.40;76.00;;;;;;4971255;28;20240;-68
2023/07/31 07:53:27;;;;;;;1.40;1.30;;;21.40;75.90;;;;;;5004390;28;20263;-70
2023/07/31 07:55:53;;;;;;;1.70;1.55;;;21.40;75.90;;;;;;5005055;28;20188;-70
2023/07/31 07:58:19;;;;;;;1.52;1.42;;;21.40;75.80;;;;;;4987667;28;20683;-70
2023/07/31 08:00:52;;;;;;;1.52;1.38;;;21.40;75.90;;;;;;5007355;28;20196;-70
2023/07/31 08:03:18;;;;;;;2.10;1.23;;;21.40;76.30;;;;;;4994291;28;20301;-69
2023/07/31 08:05:44;;;;;;;1.80;1.70;;;21.40;75.70;;;;;;4965734;28;20207;-71
2023/07/31 08:08:17;;;;;;;1.80;1.60;;;21.40;75.40;;;;;;4993001;28;20648;-69
2023/07/31 08:10:43;;;;;;;2.20;1.42;;;21.40;75.50;;;;;;4987599;28;20215;-70
2023/07/31 08:13:11;;;;;;;2.72;1.38;;;21.40;75.50;;;;;;4994198;28;20203;-69
2023/07/31 08:15:37;;;;;;;2.03;1.60;;;21.40;75.40;;;;;;4994674;28;20191;-70
2023/07/31 08:18:03;;;;;;;1.60;1.40;;;21.40;75.20;;;;;;4970321;28;20212;-69
2023/07/31 08:20:29;;;;;;;1.73;1.55;;;21.40;75.20;;;;;;4967629;28;20188;-70
2023/07/31 08:22:55;;;;;;;2.10;1.70;;;21.40;75.10;;;;;;4982715;28;20224;-70
2023/07/31 08:25:20;;;;;;;2.13;1.48;;;21.50;75.20;;;;;;4999940;28;20195;-69
2023/07/31 08:27:46;;;;;;;3.25;1.60;;;21.50;75.10;;;;;;4992794;28;20208;-69
2023/07/31 08:30:12;;;;;;;2.83;1.70;;;21.50;75.10;;;;;;4984706;28;20196;-69
2023/07/31 08:32:38;;;;;;;1.83;1.42;;;21.50;75.10;;;;;;4987214;28;20227;-69
2023/07/31 08:35:04;;;;;;;1.75;1.65;;;21.50;75.30;;;;;;4986447;28;20185;-69
2023/07/31 08:37:30;;;;;;;4.32;1.80;;;21.50;75.10;;;;;;4994851;28;20211;-69
2023/07/31 08:39:56;;;;;;;2.78;1.55;;;21.50;75.20;;;;;;4978647;28;20196;-70
2023/07/31 08:42:21;;;;;;;1.85;1.35;;;21.50;75.00;;;;;;5002589;28;20196;-70
2023/07/31 08:44:48;;;;;;;3.45;1.75;;;21.50;75.00;;;;;;4995228;28;20188;-69
2023/07/31 08:47:16;;;;;;;1.92;1.60;;;21.50;74.90;;;;;;4994586;28;20271;-69
2023/07/31 08:49:43;;;;;;;2.38;1.80;;;21.60;74.90;;;;;;4988250;28;20686;-69
2023/07/31 08:52:09;;;;;;;2.15;1.88;;;21.60;74.80;;;;;;5003496;28;20263;-69
2023/07/31 08:54:35;;;;;;;2.25;1.70;;;21.60;75.00;;;;;;4990199;28;20192;-70
2023/07/31 08:57:01;;;;;;;1.67;1.40;;;21.60;74.90;;;;;;4986335;28;20212;-69
2023/07/31 08:59:34;;;;;;;3.08;1.60;;;21.60;75.00;;;;;;4994675;28;20251;-69
2023/07/31 09:02:07;;;;;;;3.55;1.45;;;21.60;74.60;;;;;;4986635;28;20192;-69
2023/07/31 09:04:33;;;;;;;3.63;1.85;;;21.60;74.60;;;;;;5007940;28;20189;-69
2023/07/31 09:07:04;;;;;;;2.13;1.77;;;21.60;74.60;;;;;;4974914;28;20212;-69
2023/07/31 09:09:31;;;;;;;1.90;1.80;;;21.60;74.60;;;;;;5011564;28;20279;-69
2023/07/31 09:11:58;;;;;;;2.90;1.52;;;21.70;74.80;;;;;;4988117;28;20208;-68
2023/07/31 09:14:26;;;;;;;3.00;1.60;;;21.70;74.80;;;;;;4982945;28;20223;-70
2023/07/31 09:16:58;;;;;;;2.17;1.50;;;21.60;75.10;;;;;;5006108;28;20208;-69
2023/07/31 09:19:38;;;;;;;2.10;1.50;;;21.60;74.80;;;;;;5002247;28;20215;-71
2023/07/31 09:22:06;;;;;;;4.15;1.77;;;21.60;74.60;;;;;;4986468;28;20187;-69
2023/07/31 09:24:34;;;;;;;2.45;1.52;;;21.60;74.90;;;;;;4990368;28;20200;-69
2023/07/31 09:27:01;;;;;;;2.20;1.65;;;21.70;75.00;;;;;;4981076;28;20212;-68
2023/07/31 09:29:29;;;;;;;2.53;1.70;;;21.60;74.80;;;;;;4967717;28;20200;-68
2023/07/31 09:31:55;;;;;;;2.47;1.50;;;21.60;74.90;;;;;;4995409;28;20212;-69
2023/07/31 09:34:46;;;;;;;5.78;2.00;;;21.70;75.00;;;;;;4984323;28;20183;-69
2023/07/31 09:37:12;;;;;;;4.78;1.90;;;21.70;75.30;;;;;;4985592;28;20207;-68
2023/07/31 09:39:48;;;;;;;2.33;1.75;;;21.70;75.20;;;;;;5010432;28;20195;-68
2023/07/31 09:42:14;;;;;;;2.20;1.90;;;21.70;75.10;;;;;;5007378;28;20203;-69
2023/07/31 09:44:41;;;;;;;2.28;1.52;;;21.70;74.70;;;;;;4982718;28;20189;-68
2023/07/31 09:47:20;;;;;;;2.17;1.70;;;21.70;75.10;;;;;;4969554;28;20299;-69
2023/07/31 09:49:46;;;;;;;3.00;1.63;;;21.70;75.00;;;;;;4998222;28;20636;-68
2023/07/31 09:52:13;;;;;;;2.10;1.50;;;21.70;74.70;;;;;;4978584;28;20637;-67
2023/07/31 09:54:39;;;;;;;2.53;1.48;;;21.70;75.10;;;;;;4980391;28;20235;-70
2023/07/31 09:57:05;;;;;;;3.90;1.63;;;21.70;75.20;;;;;;5006493;28;20208;-68
2023/07/31 09:59:31;;;;;;;2.60;1.60;;;21.70;75.20;;;;;;4996632;28;20194;-69
2023/07/31 10:01:57;;;;;;;2.92;1.70;;;21.70;75.10;;;;;;5000282;28;20185;-68
2023/07/31 10:04:27;;;;;;;4.78;2.03;;;21.70;75.00;;;;;;4984448;28;20226;-68
2023/07/31 10:06:54;;;;;;;2.70;1.92;;;21.70;74.80;;;;;;4983677;28;20214;-68
2023/07/31 10:09:25;;;;;;;2.10;1.55;;;21.70;75.10;;;;;;4972897;28;20292;-69
2023/07/31 10:12:00;;;;;;;2.10;1.80;;;21.70;74.90;;;;;;4986562;28;20248;-69
2023/07/31 10:14:28;;;;;;;3.03;1.70;;;21.70;75.00;;;;;;4986397;28;20579;-69
2023/07/31 10:16:55;;;;;;;3.17;1.70;;;21.70;75.00;;;;;;4977808;28;20275;-69
2023/07/31 10:19:22;;;;;;;2.08;1.55;;;21.70;74.90;;;;;;5002427;28;20252;-69
2023/07/31 10:21:49;;;;;;;3.63;1.80;;;21.70;75.00;;;;;;5006876;28;20177;-69
2023/07/31 10:24:16;;;;;;;4.38;1.73;;;21.70;74.70;;;;;;4989244;28;20275;-69
2023/07/31 10:26:48;;;;;;;3.00;1.90;;;21.70;74.70;;;;;;4993529;28;20208;-69
2023/07/31 10:29:17;;;;;;;1.88;1.42;;;21.70;74.70;;;;;;5006458;28;20216;-68
2023/07/31 10:31:45;;;;;;;2.08;1.88;;;21.70;74.70;;;;;;4985799;28;20209;-69
2023/07/31 10:34:11;;;;;;;6.28;1.90;;;21.70;74.70;;;;;;5001423;28;20191;-70
2023/07/31 10:36:37;;;;;;;2.70;2.00;;;21.70;74.70;;;;;;4995116;28;20711;-69
2023/07/31 10:39:04;;;;;;;2.15;1.65;;;21.70;74.70;;;;;;5005475;28;20196;-69
2023/07/31 10:41:31;;;;;;;3.67;1.90;;;21.70;75.10;;;;;;4993768;28;20207;-69
2023/07/31 10:44:01;;;;;;;2.30;1.60;;;21.70;75.10;;;;;;4994237;28;20221;-69
2023/07/31 10:46:30;;;;;;;2.78;1.58;;;21.70;75.10;;;;;;4993616;28;20219;-69
2023/07/31 10:49:01;;;;;;;3.17;1.98;;;21.70;75.00;;;;;;5007447;28;20675;-69
2023/07/31 10:51:36;;;;;;;2.92;1.70;;;21.70;75.30;;;;;;4988829;28;20220;-70
2023/07/31 10:54:18;;;;;;;1.77;1.67;;;21.70;75.10;;;;;;4977301;28;20177;-68
2023/07/31 10:56:50;;;;;;;2.38;1.60;;;21.70;75.00;;;;;;4976575;28;20228;-70
2023/07/31 10:59:17;;;;;;;3.50;1.75;;;21.70;74.70;;;;;;5005520;28;20196;-69
2023/07/31 11:02:02;;;;;;;3.50;1.73;;;21.70;74.70;;;;;;4993620;28;20177;-69
2023/07/31 11:04:28;;;;;;;3.25;1.67;;;21.70;74.70;;;;;;4986254;28;20203;-70
2023/07/31 11:07:03;;;;;;;2.25;1.35;;;21.70;74.80;;;;;;4980173;28;20207;-69
2023/07/31 11:09:33;;;;;;;1.98;1.60;;;21.70;74.80;;;;;;4988738;28;20199;-68
2023/07/31 11:12:00;;;;;;;1.70;1.60;;;21.70;74.90;;;;;;5013977;28;20222;-69
2023/07/31 11:14:26;;;;;;;3.25;1.85;;;21.70;74.70;;;;;;4987779;28;20184;-69
2023/07/31 11:16:52;;;;;;;2.40;1.80;;;21.70;74.70;;;;;;4989056;28;20204;-67
2023/07/31 11:19:25;;;;;;;3.05;2.00;;;21.70;75.10;;;;;;4980052;28;20199;-68
2023/07/31 11:21:54;;;;;;;3.78;2.10;;;21.70;75.10;;;;;;5012541;28;20284;-69
2023/07/31 11:24:20;;;;;;;2.55;1.90;;;21.70;75.20;;;;;;4998093;28;20240;-70
2023/07/31 11:26:53;;;;;;;2.50;1.75;;;21.70;75.30;;;;;;4989763;28;20204;-69
2023/07/31 11:29:20;;;;;;;1.80;1.58;;;21.70;75.40;;;;;;4980574;28;20193;-69
2023/07/31 11:31:47;;;;;;;2.78;1.80;;;21.70;75.30;;;;;;4976302;28;20754;-69
2023/07/31 11:34:13;;;;;;;2.58;1.52;;;21.70;75.40;;;;;;4989396;28;20221;-69
2023/07/31 11:36:39;;;;;;;4.15;1.92;;;21.70;75.40;;;;;;4992488;28;20247;-70
2023/07/31 11:39:08;;;;;;;1.92;1.73;;;21.70;75.30;;;;;;4992876;28;20205;-69
2023/07/31 11:41:34;;;;;;;2.35;1.60;;;21.70;75.30;;;;;;5001785;28;20230;-69
2023/07/31 11:44:01;;;;;;;3.45;1.70;;;21.70;75.30;;;;;;4993971;28;20189;-67
2023/07/31 11:46:30;;;;;;;2.10;1.90;;;21.70;75.30;;;;;;4992350;28;20220;-69
2023/07/31 11:49:00;;;;;;;3.60;1.98;;;21.70;75.20;;;;;;4993753;28;20197;-69
2023/07/31 11:51:29;;;;;;;3.05;1.77;;;21.80;75.20;;;;;;5001054;28;20236;-68
2023/07/31 11:54:00;;;;;;;3.67;1.77;;;21.80;75.10;;;;;;4995955;28;20187;-69
2023/07/31 11:56:26;;;;;;;3.30;1.88;;;21.80;75.40;;;;;;4995440;28;20192;-70
2023/07/31 11:59:03;;;;;;;2.45;1.90;;;21.80;75.50;;;;;;4968406;28;20185;-69
2023/07/31 12:01:29;;;;;;;2.97;2.17;;;21.80;75.40;;;;;;4992293;28;20196;-69
2023/07/31 12:03:56;;;;;;;2.35;1.85;;;21.80;75.20;;;;;;4978601;28;20192;-68
2023/07/31 12:06:32;;;;;;;2.53;1.65;;;21.80;76.00;;;;;;5012723;28;20295;-69
2023/07/31 12:09:04;;;;;;;2.35;2.05;;;21.80;75.40;;;;;;5011739;28;20279;-69
2023/07/31 12:11:29;;;;;;;3.00;1.88;;;21.80;75.80;;;;;;4986470;28;20244;-69
2023/07/31 12:13:56;;;;;;;2.50;1.90;;;21.80;75.90;;;;;;4992383;28;20291;-69
2023/07/31 12:16:27;;;;;;;2.65;1.75;;;21.80;75.60;;;;;;4987554;28;20267;-69
2023/07/31 12:18:53;;;;;;;2.33;1.55;;;21.80;75.40;;;;;;5000208;28;20212;-70
2023/07/31 12:21:19;;;;;;;3.50;2.08;;;21.80;75.30;;;;;;4983135;28;20223;-69
2023/07/31 12:23:45;;;;;;;2.60;1.83;;;21.80;75.50;;;;;;4971233;28;20195;-69
2023/07/31 12:26:15;;;;;;;2.85;1.98;;;21.80;75.40;;;;;;4999929;28;20283;-70
2023/07/31 12:28:48;;;;;;;2.17;1.70;;;21.80;75.70;;;;;;4999536;28;20193;-70
2023/07/31 12:31:22;;;;;;;2.58;1.90;;;21.80;75.50;;;;;;4983637;28;20216;-69
2023/07/31 12:33:51;;;;;;;2.90;2.00;;;21.80;76.20;;;;;;5008232;28;20192;-69
2023/07/31 12:36:21;;;;;;;2.55;1.95;;;21.80;75.90;;;;;;4975261;28;20181;-70
2023/07/31 12:38:47;;;;;;;3.15;1.70;;;21.80;75.70;;;;;;4977837;28;20279;-70
2023/07/31 12:41:13;;;;;;;2.03;1.55;;;21.80;75.90;;;;;;5003324;28;20263;-67
2023/07/31 12:43:41;;;;;;;5.68;3.92;;;21.80;75.50;;;;;;4985641;28;20230;-68
2023/07/31 12:46:08;;;;;;;3.15;2.85;;;21.80;75.40;;;;;;4991586;28;20197;-68
2023/07/31 12:48:34;;;;;;;3.70;2.58;;;21.80;75.30;;;;;;5007648;28;20216;-70